Decoded Metar for KHKY (HICKORY in NC, USA) (IATA:HKY) | Meteo·Mobile Aviation Weather
aviador You're here:

KHKY Decoded Metar

HICKORY in NC, USA
Report Time2018-11-20 05:53:00
UTC Time2018-11-20 06:17:08
Flight Rules vfr VFR
Wind280° at 03 kt
W.Decomp.*RWY 24: 2.1 kt HW 2.2 kt RCW
RWY 01: 0.3 kt HW 3 kt LCW
W.Rank280° ranks 13
Current wind is below 280° avg. (5.9)
Visibility9999 m
Phenomena:N/A
Clouds:Overcast 070 Hf
Expected CloudBase > 800 ft AGL from Temp-Dew spread
Ceiling7,000 ft
Temp10°C (ISA -3)
Dew Point08°C (88% RH)
AAT8.5°C
QNH1015 hPa
Density Alt922 ft
Elevation1,161 ft
Report Wrong Elevation
Raw Report
METAR KHKY 200553Z AUTO 28003KT 10SM OVC070 10/08 A2997 RMK AO2 SLP136
T01000078 10128 20083 56009=

Extra information for KHKY:More info

Metar Taf Metar & Taf Last 4 Metars F.Rules Stats Wind Profile Meteogram Temp Stats Airport Information Weather charts Add Link Nearby VenuesMetar ALERT Operation Metar Decoded Social comments

AIRNAV info for KHKY